NCAR-RAP Real-Time Weather Data

Output produced by METARs form (08 May 2021  16:01 UTC)
found at http://weather.rap.ucar.edu/surface/
 
KMSN 081553Z 06006KT 10SM FEW047 FEW250 11/00 A3014 RMK AO2 SLP213 T01060000 $
KMSN 081453Z 00000KT 10SM FEW035 FEW250 08/M01 A3015 RMK AO2 SLP214 T00831006 50002 $
KMSN 081353Z 12003KT 10SM FEW022 BKN250 07/01 A3015 RMK AO2 SLP216 T00720011 $
KMSN 081253Z 00000KT 10SM FEW035 FEW250 06/02 A3015 RMK AO2 SLP217 T00560022 $
KMSN 081153Z 00000KT 10SM FEW035 01/M01 A3014 RMK AO2 SLP213 T00111006 10033 21011 51007 $
KMSN 081053Z 00000KT 10SM FEW038 M01/M02 A3014 RMK AO2 SLP213 T10061017 $
KMSN 080953Z AUTO 00000KT 10SM CLR 00/M01 A3013 RMK AO2 SLP208 T00001011 $
KMSN 080853Z AUTO 00000KT 10SM CLR 00/M01 A3012 RMK AO2 SLP206 T00001011 53007 $
KMSN 080753Z AUTO 00000KT 10SM CLR 01/M01 A3011 RMK AO2 SLP203 T00061011 $
KMSN 080653Z AUTO 36003KT 10SM CLR 02/M02 A3010 RMK AO2 SLP199 T00221022 $
KMSN 080553Z AUTO 35005KT 10SM CLR 03/M02 A3010 RMK AO2 SLP198 T00331022 10089 20017 401170017 51007 $
KMSN 080453Z AUTO 34004KT 10SM CLR 03/M01 A3009 RMK AO2 SLP196 T00281011 $
KMSN 080353Z 01003KT 10SM CLR 03/M01 A3009 RMK AO2 SLP194 LAST T00281006 $
KMSN 080253Z 00000KT 10SM CLR 05/M02 A3007 RMK AO2 SLP189 T00501017 53009 $
KMSN 080153Z 34004KT 10SM FEW070 07/M02 A3006 RMK AO2 SLP184 T00721022
KMSN 080053Z 33004KT 10SM BKN070 08/M03 A3005 RMK AO2 SLP182 T00781028
KMSN 072353Z 34006KT 10SM BKN070 BKN090 09/M03 A3005 RMK AO2 SLP180 T00891028 10111 20083 57001
KMSN 072253Z 35006G16KT 10SM FEW050 BKN070 BKN090 09/M04 A3005 RMK AO2 SLP180 T00941039
KMSN 072153Z 33008G17KT 10SM FEW050 BKN065 11/M03 A3005 RMK AO2 SLP180 T01061033
KMSN 072053Z 33009KT 10SM OVC065 10/M03 A3005 RMK AO2 SLP180 T01001033 53006
KMSN 071953Z 33013G23KT 10SM FEW055 BKN070 10/M03 A3005 RMK AO2 SLP178 T01001033
KMSN 071853Z 34007G17KT 300V020 10SM FEW055 BKN065 11/M03 A3003 RMK AO2 SLP174 T01061028
KMSN 071753Z 34012G21KT 10SM BKN060 10/M02 A3003 RMK AO2 SLP173 T01001022 10117 20067 51006
KMSN 071653Z 35014G21KT 10SM BKN050 10/M02 A3003 RMK AO2 PK WND 32026/1642 SLP173 T01001022
KMSN 071553Z 32011G19KT 10SM BKN040 09/M01 A3003 RMK AO2 SLP172 T00891011
KMSN 071453Z 34015G23KT 10SM BKN032 09/00 A3001 RMK AO2 SLP168 T00940000 51005
KMSN 071353Z 33006G17KT 10SM FEW025 08/02 A3001 RMK AO2 SLP166 T00830017
KMSN 071253Z 35009G17KT 10SM SCT022 08/03 A3001 RMK AO2 SLP165 T00780028
KMSN 071153Z 31004KT 10SM FEW060 07/03 A3000 RMK AO2 SLP162 T00670033 10089 20056 53009
KMSN 071053Z 32005KT 10SM FEW018 FEW070 06/02 A2998 RMK AO2 SLP156 T00610022
KMSN 070953Z AUTO 31005KT 10SM CLR 07/02 A2997 RMK AO2 SLP152 T00720022
KMSN 070853Z AUTO 30007G18KT 10SM SCT065 BKN080 OVC090 09/01 A2997 RMK AO2 SLP150 T00890011 56006
KMSN 070753Z AUTO 31006KT 10SM OVC095 08/01 A2997 RMK AO2 SLP151 T00830011
KMSN 070653Z AUTO 00000KT 10SM OVC095 08/02 A2998 RMK AO2 SLP153 T00830022
KMSN 070553Z AUTO 00000KT 10SM CLR 07/03 A2999 RMK AO2 SLP157 T00720028 10117 20050 401500050 56018
KMSN 070453Z AUTO VRB03KT 10SM CLR 08/03 A3001 RMK AO2 SLP164 T00780028
KMSN 070353Z 00000KT 10SM CLR 06/02 A3002 RMK AO2 SLP170 LAST T00560022
KMSN 070253Z 00000KT 10SM CLR 07/03 A3004 RMK AO2 SLP178 T00670028 51004
KMSN 070153Z 00000KT 10SM SCT090 09/03 A3004 RMK AO2 SLP177 T00890033
KMSN 070053Z 33004KT 10SM BKN100 10/03 A3004 RMK AO2 SLP176 T01000028
KMSN 062353Z VRB04G14KT 10SM SCT070 BKN100 12/02 A3003 RMK AO2 SLP173 T01170022 10150 20117 56008
KMSN 062253Z 31006KT 10SM BKN100 13/01 A3003 RMK AO2 SLP174 T01280006
KMSN 062153Z 35009KT 10SM SCT065 BKN100 13/01 A3004 RMK AO2 SLP176 T01330011
KMSN 062053Z 32011G18KT 10SM BKN075 14/01 A3006 RMK AO2 SLP180 T01390006 55012
KMSN 061953Z 32004KT 10SM FEW070 BKN100 13/00 A3005 RMK AO2 WSHFT 1908 SLP180 T01330000
KMSN 061923Z 05012G21KT 10SM BKN100 14/02 A3006 RMK AO2 WSHFT 1908 T01390017
KMSN 061853Z 33009G16KT 10SM SCT060 BKN100 13/00 A3007 RMK AO2 SLP186 T01330000
KMSN 061753Z 35008G16KT 10SM BKN060 BKN090 13/01 A3009 RMK AO2 SLP193 60000 T01330011 10133 20056 58014
KMSN 061653Z 04009G16KT 10SM BKN032 BKN055 13/02 A3011 RMK AO2 SLP199 T01280022
KMSN 061627Z VRB06KT 10SM BKN030 12/05 A3012 RMK AO2 T01170050